createdAt,value
2022-11-30T00:01:26.660Z,66.43
2022-11-30T00:06:28.559Z,75.43
2022-11-30T00:11:30.904Z,71.03
2022-11-30T00:16:34.040Z,70.22
2022-11-30T00:21:35.917Z,63.95
2022-11-30T00:26:37.984Z,61.33
2022-11-30T00:31:39.823Z,56.97
2022-11-30T00:36:41.638Z,56.42
2022-11-30T00:41:43.460Z,58.58
2022-11-30T00:46:45.271Z,55.70
2022-11-30T00:51:47.130Z,57.53
2022-11-30T00:56:48.924Z,52.92
2022-11-30T01:01:50.837Z,48.25
2022-11-30T01:06:52.652Z,59.15
2022-11-30T01:11:54.452Z,51.20
2022-11-30T01:16:56.535Z,52.47
2022-11-30T01:21:58.358Z,53.80
2022-11-30T01:27:00.567Z,52.78
2022-11-30T01:32:02.451Z,49.83
2022-11-30T01:37:04.265Z,55.45
2022-11-30T01:42:13.154Z,50.85
2022-11-30T01:47:14.981Z,46.17
2022-11-30T01:52:22.766Z,51.30
2022-11-30T01:57:36.948Z,56.53
2022-11-30T02:02:58.660Z,56.60
2022-11-30T02:08:01.385Z,51.42
2022-11-30T02:13:41.978Z,48.85
2022-11-30T02:18:48.425Z,54.85
2022-11-30T02:24:11.873Z,51.38
2022-11-30T02:29:23.019Z,48.17
2022-11-30T02:34:29.289Z,57.83
2022-11-30T02:39:31.143Z,53.53
2022-11-30T02:44:32.987Z,53.38
2022-11-30T02:49:45.488Z,53.83
2022-11-30T02:54:47.712Z,51.97
2022-11-30T02:59:50.232Z,46.83
2022-11-30T03:04:52.051Z,49.85
2022-11-30T03:09:53.881Z,47.40
2022-11-30T03:14:55.826Z,57.15
2022-11-30T03:19:57.710Z,56.03
2022-11-30T03:24:59.526Z,53.45
2022-11-30T03:30:01.801Z,51.17
2022-11-30T03:35:03.761Z,52.50
2022-11-30T03:40:06.273Z,52.15
2022-11-30T03:45:08.328Z,50.33
2022-11-30T03:50:11.290Z,50.90
2022-11-30T03:55:13.369Z,46.17
2022-11-30T04:00:15.537Z,51.85
2022-11-30T04:05:17.996Z,51.50
2022-11-30T04:10:20.184Z,51.45
2022-11-30T04:15:22.074Z,53.47
2022-11-30T04:20:24.023Z,49.22
2022-11-30T04:25:25.895Z,47.85
2022-11-30T04:30:27.919Z,54.17
2022-11-30T04:35:29.822Z,45.53
2022-11-30T04:40:31.641Z,48.13
2022-11-30T04:45:35.558Z,46.78
2022-11-30T04:50:38.031Z,55.83
2022-11-30T04:55:40.006Z,56.40
2022-11-30T05:00:41.839Z,56.75
2022-11-30T05:05:43.648Z,59.65
2022-11-30T05:10:50.180Z,60.92
2022-11-30T05:15:54.755Z,56.27
2022-11-30T05:20:56.636Z,63.42
2022-11-30T05:25:58.416Z,61.03
2022-11-30T05:31:05.080Z,62.15
2022-11-30T05:36:10.801Z,59.95
2022-11-30T05:41:13.497Z,65.13
2022-11-30T05:46:15.387Z,63.22
2022-11-30T05:51:19.153Z,57.38
2022-11-30T05:56:21.966Z,55.00
2022-11-30T06:01:28.455Z,56.70
2022-11-30T06:06:30.240Z,57.75
2022-11-30T06:11:32.064Z,49.90
2022-11-30T06:16:33.931Z,50.78
2022-11-30T06:21:35.788Z,52.67
2022-11-30T06:26:37.620Z,52.78
2022-11-30T06:31:39.619Z,44.88
2022-11-30T06:36:41.458Z,40.80
2022-11-30T06:41:43.266Z,48.80
2022-11-30T06:46:45.108Z,46.05
2022-11-30T06:51:46.917Z,47.33
2022-11-30T06:56:48.992Z,50.80
2022-11-30T07:01:50.821Z,52.78
2022-11-30T07:06:52.689Z,45.58
2022-11-30T07:11:54.580Z,45.08
2022-11-30T07:16:57.101Z,56.92
2022-11-30T07:21:58.975Z,51.78
2022-11-30T07:27:03.069Z,44.45
2022-11-30T07:32:05.123Z,46.95
2022-11-30T07:37:06.962Z,48.05
2022-11-30T07:42:08.809Z,50.53
2022-11-30T07:47:10.647Z,48.20
2022-11-30T07:52:12.552Z,47.53
2022-11-30T07:57:14.452Z,46.38
2022-11-30T08:02:16.405Z,43.88
2022-11-30T08:07:18.519Z,46.53
2022-11-30T08:12:20.417Z,44.65
2022-11-30T08:17:22.241Z,46.47
2022-11-30T08:22:24.075Z,44.75
2022-11-30T08:27:26.605Z,40.22
2022-11-30T08:32:28.456Z,46.75
2022-11-30T08:37:30.294Z,46.25
2022-11-30T08:42:32.143Z,42.10
2022-11-30T08:47:34.007Z,42.13
2022-11-30T08:52:36.049Z,47.97
2022-11-30T08:57:37.877Z,45.03
2022-11-30T09:02:39.758Z,46.85
2022-11-30T09:07:41.700Z,40.25
2022-11-30T09:12:43.688Z,47.90
2022-11-30T09:17:45.486Z,39.65
2022-11-30T09:22:47.302Z,42.90
2022-11-30T09:27:49.122Z,40.28
2022-11-30T09:32:50.930Z,42.40
2022-11-30T09:37:53.656Z,41.35
2022-11-30T09:43:14.658Z,44.45
2022-11-30T09:49:05.629Z,39.53
2022-11-30T09:54:15.273Z,36.55
2022-11-30T09:59:29.736Z,38.55
2022-11-30T10:04:31.584Z,38.00
2022-11-30T10:09:33.332Z,34.95
2022-11-30T10:14:47.452Z,41.00
2022-11-30T10:20:13.402Z,44.00
2022-11-30T10:25:27.702Z,37.72
2022-11-30T10:30:36.559Z,39.90
2022-11-30T10:35:44.499Z,39.28
2022-11-30T10:40:53.670Z,35.95
2022-11-30T10:45:55.752Z,31.67
2022-11-30T10:51:00.697Z,39.17
2022-11-30T10:56:09.884Z,33.47
2022-11-30T11:01:30.386Z,34.70
2022-11-30T11:06:33.604Z,33.30
2022-11-30T11:11:39.132Z,32.72
2022-11-30T11:16:55.969Z,32.60
2022-11-30T11:21:57.968Z,37.28
2022-11-30T11:27:00.039Z,35.20
2022-11-30T11:32:27.279Z,31.83
2022-11-30T11:37:37.850Z,37.22
2022-11-30T11:42:50.003Z,40.55
2022-11-30T11:48:29.172Z,37.63
2022-11-30T11:53:44.854Z,31.75
2022-11-30T11:59:10.671Z,37.30
2022-11-30T12:04:29.366Z,41.15
2022-11-30T12:09:37.471Z,35.85
2022-11-30T12:14:39.294Z,36.38
2022-11-30T12:19:54.607Z,36.80
2022-11-30T12:25:06.392Z,41.22
2022-11-30T12:30:49.266Z,36.58
2022-11-30T12:36:06.183Z,38.00
2022-11-30T12:41:30.712Z,36.70
2022-11-30T12:46:48.479Z,37.55
2022-11-30T12:52:17.242Z,38.22
2022-11-30T12:57:36.784Z,44.15
2022-11-30T13:02:47.971Z,37.03
2022-11-30T13:08:13.196Z,39.90
2022-11-30T13:13:19.946Z,36.63
2022-11-30T13:18:24.503Z,43.67
2022-11-30T13:23:42.673Z,41.40
2022-11-30T13:29:27.730Z,39.05
2022-11-30T13:34:30.326Z,35.83
2022-11-30T13:39:51.541Z,38.03
2022-11-30T13:44:53.860Z,34.67
2022-11-30T13:50:18.619Z,33.97
2022-11-30T13:55:35.798Z,28.92
2022-11-30T14:00:37.613Z,29.25
2022-11-30T14:05:41.256Z,34.05
2022-11-30T14:10:46.144Z,30.35
2022-11-30T14:15:47.944Z,30.75
2022-11-30T14:20:52.616Z,33.30
2022-11-30T14:25:57.378Z,31.73
2022-11-30T14:31:00.301Z,34.17
2022-11-30T14:36:02.997Z,35.38
2022-11-30T14:41:05.687Z,33.30
2022-11-30T14:46:12.982Z,38.55
2022-11-30T14:51:18.298Z,34.20
2022-11-30T14:56:49.849Z,38.40
2022-11-30T15:02:00.598Z,35.55
2022-11-30T15:07:02.600Z,35.47
2022-11-30T15:12:04.590Z,37.97
2022-11-30T15:17:14.633Z,34.38
2022-11-30T15:22:23.041Z,36.78
2022-11-30T15:27:25.050Z,40.10
2022-11-30T15:32:27.276Z,32.53
2022-11-30T15:37:35.522Z,32.85
2022-11-30T15:42:43.692Z,35.95
2022-11-30T15:47:45.609Z,36.50
2022-11-30T15:52:50.952Z,39.35
2022-11-30T15:58:03.374Z,42.53
2022-11-30T16:03:13.320Z,40.33
2022-11-30T16:08:18.150Z,54.22
2022-11-30T16:13:22.660Z,39.42
2022-11-30T16:18:28.359Z,48.80
2022-11-30T16:23:30.352Z,44.88
2022-11-30T16:28:32.211Z,44.63
2022-11-30T16:33:34.070Z,41.20
2022-11-30T16:38:35.877Z,45.75
2022-11-30T16:43:40.440Z,35.08
2022-11-30T16:48:42.654Z,45.38
2022-11-30T16:53:45.564Z,40.10
2022-11-30T16:58:48.021Z,39.22
2022-11-30T17:03:51.886Z,44.05
2022-11-30T17:08:54.105Z,39.38
2022-11-30T17:13:56.411Z,40.85
2022-11-30T17:18:58.410Z,38.55
2022-11-30T17:24:01.375Z,37.65
2022-11-30T17:29:04.604Z,37.13
2022-11-30T17:34:08.646Z,40.53
2022-11-30T17:39:10.656Z,39.97
2022-11-30T17:44:12.489Z,45.80
2022-11-30T17:49:14.324Z,44.65
2022-11-30T17:54:17.016Z,41.28
2022-11-30T17:59:19.501Z,42.85
2022-11-30T18:04:21.365Z,39.95
2022-11-30T18:09:24.426Z,42.00
2022-11-30T18:14:26.342Z,39.13
2022-11-30T18:19:28.125Z,46.80
2022-11-30T18:24:32.042Z,49.97
2022-11-30T18:29:34.099Z,61.65
2022-11-30T18:34:36.049Z,53.67
2022-11-30T18:39:37.886Z,46.83
2022-11-30T18:44:39.735Z,38.60
2022-11-30T18:49:41.589Z,36.92
2022-11-30T18:54:43.481Z,38.80
2022-11-30T18:59:48.724Z,40.78
2022-11-30T19:04:52.949Z,41.80
2022-11-30T19:09:55.374Z,46.47
2022-11-30T19:14:57.888Z,41.13
2022-11-30T19:20:00.758Z,45.15
2022-11-30T19:25:02.700Z,50.83
2022-11-30T19:30:06.676Z,50.72
2022-11-30T19:35:08.546Z,51.58
2022-11-30T19:40:10.939Z,59.33
2022-11-30T19:45:12.803Z,64.13
2022-11-30T19:50:14.845Z,59.53
2022-11-30T19:55:16.779Z,64.22
2022-11-30T20:00:19.067Z,74.07
2022-11-30T20:05:20.910Z,64.72
2022-11-30T20:10:23.253Z,68.07
2022-11-30T20:15:25.735Z,70.43
2022-11-30T20:20:27.648Z,75.70
2022-11-30T20:25:31.196Z,65.25
2022-11-30T20:30:33.126Z,71.90
2022-11-30T20:35:35.296Z,70.90
2022-11-30T20:40:39.877Z,70.68
2022-11-30T20:45:41.707Z,74.50
2022-11-30T20:50:51.332Z,74.65
2022-11-30T20:56:06.321Z,76.45
2022-11-30T21:01:14.147Z,73.80
2022-11-30T21:06:16.061Z,85.90
2022-11-30T21:11:20.215Z,78.25
2022-11-30T21:16:28.296Z,73.97
2022-11-30T21:21:33.434Z,79.20
2022-11-30T21:26:41.289Z,81.13
2022-11-30T21:31:43.990Z,82.22
2022-11-30T21:36:46.021Z,71.78
2022-11-30T21:41:47.921Z,71.18
2022-11-30T21:46:50.455Z,78.53
2022-11-30T21:51:53.635Z,73.25
2022-11-30T21:56:55.389Z,84.95
2022-11-30T22:01:57.198Z,84.20
2022-11-30T22:06:59.049Z,76.20
2022-11-30T22:12:00.886Z,77.53
2022-11-30T22:17:02.742Z,77.75
2022-11-30T22:22:04.630Z,85.07
2022-11-30T22:27:06.492Z,83.80
2022-11-30T22:32:08.368Z,83.05
2022-11-30T22:37:10.189Z,92.80
2022-11-30T22:42:12.017Z,80.35
2022-11-30T22:47:15.066Z,85.28
2022-11-30T22:52:16.876Z,85.50
2022-11-30T22:57:18.857Z,79.63
2022-11-30T23:02:20.674Z,89.35
2022-11-30T23:07:25.151Z,78.07
2022-11-30T23:12:58.043Z,83.07
2022-11-30T23:17:52.608Z,89.70
2022-11-30T23:22:54.455Z,78.43
2022-11-30T23:27:56.324Z,75.57
2022-11-30T23:32:58.207Z,84.65
2022-11-30T23:38:00.028Z,89.70
2022-11-30T23:43:01.832Z,79.97
2022-11-30T23:48:03.708Z,139.25
2022-11-30T23:53:05.538Z,90.65
2022-11-30T23:58:07.360Z,88.82
